createdAt,value
2022-11-29T00:01:42.136Z,3.10
2022-11-29T00:04:10.794Z,3.10
2022-11-29T00:06:39.260Z,3.10
2022-11-29T00:09:09.281Z,3.10
2022-11-29T00:11:57.272Z,3.10
2022-11-29T00:14:28.508Z,3.20
2022-11-29T00:16:59.301Z,3.10
2022-11-29T00:19:27.565Z,3.10
2022-11-29T00:21:55.744Z,3.20
2022-11-29T00:24:24.466Z,3.10
2022-11-29T00:26:52.568Z,3.20
2022-11-29T00:29:20.683Z,3.10
2022-11-29T00:31:51.109Z,3.10
2022-11-29T00:34:19.259Z,3.10
2022-11-29T00:36:47.604Z,3.00
2022-11-29T00:39:16.412Z,3.00
2022-11-29T00:41:44.843Z,3.10
2022-11-29T00:44:19.695Z,3.10
2022-11-29T00:46:49.089Z,3.10
2022-11-29T00:49:18.965Z,3.10
2022-11-29T00:51:47.255Z,3.10
2022-11-29T00:54:15.379Z,3.10
2022-11-29T00:56:43.748Z,3.10
2022-11-29T00:59:12.122Z,3.10
2022-11-29T01:01:40.444Z,3.10
2022-11-29T01:04:08.637Z,3.20
2022-11-29T01:06:38.295Z,3.20
2022-11-29T01:09:06.457Z,3.20
2022-11-29T01:11:35.471Z,3.20
2022-11-29T01:14:05.111Z,3.30
2022-11-29T01:16:33.752Z,3.20
2022-11-29T01:19:02.615Z,3.30
2022-11-29T01:21:31.092Z,3.20
2022-11-29T01:24:01.639Z,3.20
2022-11-29T01:26:32.073Z,3.20
2022-11-29T01:29:00.910Z,3.10
2022-11-29T01:31:31.218Z,3.10
2022-11-29T01:34:01.150Z,3.10
2022-11-29T01:36:30.081Z,3.00
2022-11-29T01:39:01.809Z,2.90
2022-11-29T01:41:32.647Z,3.00
2022-11-29T01:44:08.828Z,2.90
2022-11-29T01:46:39.921Z,2.90
2022-11-29T01:49:13.288Z,2.90
2022-11-29T01:51:45.709Z,3.00
2022-11-29T01:54:15.928Z,2.90
2022-11-29T01:56:46.667Z,2.90
2022-11-29T01:59:17.965Z,2.90
2022-11-29T02:01:46.995Z,2.80
2022-11-29T02:04:16.279Z,2.80
2022-11-29T02:06:45.071Z,2.80
2022-11-29T02:09:21.264Z,2.80
2022-11-29T02:12:06.281Z,2.70
2022-11-29T02:15:02.373Z,2.80
2022-11-29T02:17:37.749Z,2.80
2022-11-29T02:20:55.747Z,2.80
2022-11-29T02:23:56.270Z,2.80
2022-11-29T02:26:50.497Z,2.80
2022-11-29T02:29:50.341Z,2.70
2022-11-29T02:32:51.213Z,2.80
2022-11-29T02:35:34.196Z,2.80
2022-11-29T02:38:19.627Z,2.80
2022-11-29T02:41:02.171Z,2.80
2022-11-29T02:44:00.880Z,2.80
2022-11-29T02:46:52.372Z,2.80
2022-11-29T02:49:34.707Z,2.80
2022-11-29T02:52:08.706Z,2.90
2022-11-29T02:54:50.604Z,2.90
2022-11-29T02:57:29.260Z,2.80
2022-11-29T03:00:03.683Z,2.90
2022-11-29T03:02:39.598Z,2.90
2022-11-29T03:05:24.030Z,2.80
2022-11-29T03:07:57.694Z,2.90
2022-11-29T03:10:35.033Z,2.90
2022-11-29T03:13:06.598Z,2.80
2022-11-29T03:15:43.056Z,2.90
2022-11-29T03:18:29.539Z,2.90
2022-11-29T03:21:10.923Z,2.90
2022-11-29T03:23:42.588Z,3.00
2022-11-29T03:26:15.589Z,2.90
2022-11-29T03:28:47.498Z,2.90
2022-11-29T03:31:23.061Z,3.00
2022-11-29T03:33:58.632Z,2.90
2022-11-29T03:36:38.225Z,3.00
2022-11-29T03:39:12.306Z,3.00
2022-11-29T03:41:47.835Z,3.00
2022-11-29T03:44:19.361Z,2.90
2022-11-29T03:46:55.889Z,2.90
2022-11-29T03:49:28.152Z,3.00
2022-11-29T03:52:04.915Z,3.00
2022-11-29T03:54:44.145Z,3.00
2022-11-29T03:57:14.017Z,3.00
2022-11-29T03:59:53.593Z,3.00
2022-11-29T04:02:53.803Z,3.00
2022-11-29T04:05:47.727Z,3.00
2022-11-29T04:09:01.874Z,3.00
2022-11-29T04:11:55.876Z,3.00
2022-11-29T04:14:35.572Z,3.00
2022-11-29T04:17:39.386Z,3.00
2022-11-29T04:20:40.418Z,3.10
2022-11-29T04:23:33.814Z,3.10
2022-11-29T04:26:36.000Z,3.10
2022-11-29T04:29:25.762Z,3.10
2022-11-29T04:32:21.451Z,3.10
2022-11-29T04:35:01.720Z,3.10
2022-11-29T04:37:53.755Z,3.10
2022-11-29T04:40:43.017Z,3.20
2022-11-29T04:43:36.267Z,3.20
2022-11-29T04:46:37.879Z,3.20
2022-11-29T04:49:26.960Z,3.10
2022-11-29T04:52:16.187Z,3.10
2022-11-29T04:54:50.955Z,3.10
2022-11-29T04:57:26.843Z,3.10
2022-11-29T05:00:07.437Z,3.10
2022-11-29T05:02:42.368Z,3.10
2022-11-29T05:05:23.367Z,3.10
2022-11-29T05:08:01.455Z,3.10
2022-11-29T05:10:34.747Z,3.10
2022-11-29T05:13:12.936Z,3.10
2022-11-29T05:16:09.452Z,3.10
2022-11-29T05:19:10.755Z,3.10
2022-11-29T05:21:48.779Z,3.00
2022-11-29T05:24:28.609Z,3.00
2022-11-29T05:27:03.023Z,3.10
2022-11-29T05:29:36.903Z,3.10
2022-11-29T05:32:24.017Z,3.00
2022-11-29T05:35:18.507Z,3.10
2022-11-29T05:37:52.338Z,3.10
2022-11-29T05:40:42.193Z,3.10
2022-11-29T05:43:23.197Z,3.00
2022-11-29T05:45:57.563Z,3.00
2022-11-29T05:48:33.423Z,3.00
2022-11-29T05:51:12.011Z,3.00
2022-11-29T05:53:48.621Z,3.10
2022-11-29T05:56:25.947Z,3.10
2022-11-29T05:58:58.766Z,3.10
2022-11-29T06:01:31.740Z,3.10
2022-11-29T06:04:11.690Z,3.10
2022-11-29T06:06:48.099Z,3.10
2022-11-29T06:09:27.256Z,3.10
2022-11-29T06:12:02.405Z,3.10
2022-11-29T06:14:52.827Z,3.10
2022-11-29T06:17:42.476Z,3.10
2022-11-29T06:20:44.013Z,3.10
2022-11-29T06:23:29.228Z,3.10
2022-11-29T06:26:19.043Z,3.20
2022-11-29T06:28:59.142Z,3.10
2022-11-29T06:31:33.689Z,3.20
2022-11-29T06:34:08.655Z,3.20
2022-11-29T06:36:46.119Z,3.20
2022-11-29T06:39:15.111Z,3.20
2022-11-29T06:41:43.789Z,3.20
2022-11-29T06:44:12.827Z,3.20
2022-11-29T06:46:47.495Z,3.20
2022-11-29T06:49:23.983Z,3.10
2022-11-29T06:52:09.400Z,3.10
2022-11-29T06:54:50.075Z,3.20
2022-11-29T06:57:27.691Z,3.20
2022-11-29T07:00:11.668Z,3.20
2022-11-29T07:03:12.262Z,3.30
2022-11-29T07:05:41.018Z,3.20
2022-11-29T07:08:16.201Z,3.20
2022-11-29T07:10:46.419Z,3.20
2022-11-29T07:13:15.741Z,3.20
2022-11-29T07:15:54.377Z,3.20
2022-11-29T07:18:32.347Z,3.20
2022-11-29T07:21:10.431Z,3.20
2022-11-29T07:23:46.889Z,3.20
2022-11-29T07:26:22.700Z,3.20
2022-11-29T07:29:12.233Z,3.30
2022-11-29T07:31:51.095Z,3.30
2022-11-29T07:34:27.231Z,3.30
2022-11-29T07:37:02.990Z,3.30
2022-11-29T07:39:45.020Z,3.50
2022-11-29T07:42:23.797Z,3.40
2022-11-29T07:45:01.121Z,3.40
2022-11-29T07:47:35.304Z,3.30
2022-11-29T07:50:04.425Z,3.40
2022-11-29T07:52:32.770Z,3.40
2022-11-29T07:55:03.294Z,3.40
2022-11-29T07:57:31.436Z,3.50
2022-11-29T07:59:59.614Z,3.50
2022-11-29T08:02:29.222Z,3.60
2022-11-29T08:04:57.819Z,3.50
2022-11-29T08:07:32.508Z,3.60
2022-11-29T08:10:02.037Z,3.60
2022-11-29T08:12:30.226Z,3.60
2022-11-29T08:14:58.315Z,3.70
2022-11-29T08:17:26.811Z,3.60
2022-11-29T08:19:57.197Z,3.70
2022-11-29T08:22:28.104Z,3.60
2022-11-29T08:24:56.181Z,3.60
2022-11-29T08:27:25.735Z,3.60
2022-11-29T08:29:53.846Z,3.60
2022-11-29T08:32:23.545Z,3.60
2022-11-29T08:34:51.772Z,3.70
2022-11-29T08:37:19.993Z,3.70
2022-11-29T08:39:48.163Z,3.40
2022-11-29T08:42:16.285Z,3.60
2022-11-29T08:44:46.173Z,3.60
2022-11-29T08:47:32.049Z,3.60
2022-11-29T08:50:02.778Z,3.50
2022-11-29T08:52:49.235Z,3.60
2022-11-29T08:55:19.351Z,3.60
2022-11-29T08:57:47.484Z,3.60
2022-11-29T09:00:18.013Z,3.60
2022-11-29T09:02:46.393Z,3.70
2022-11-29T09:05:15.172Z,3.60
2022-11-29T09:07:43.776Z,3.70
2022-11-29T09:10:12.579Z,3.70
2022-11-29T09:12:44.203Z,3.70
2022-11-29T09:15:12.925Z,3.60
2022-11-29T09:17:42.492Z,3.70
2022-11-29T09:20:11.790Z,3.80
2022-11-29T09:22:39.902Z,3.90
2022-11-29T09:25:08.633Z,3.90
2022-11-29T09:27:36.798Z,3.90
2022-11-29T09:30:05.780Z,3.90
2022-11-29T09:32:35.930Z,3.90
2022-11-29T09:35:05.850Z,3.90
2022-11-29T09:37:35.094Z,3.90
2022-11-29T09:40:03.212Z,4.00
2022-11-29T09:42:48.638Z,4.00
2022-11-29T09:45:21.382Z,4.00
2022-11-29T09:48:05.039Z,4.10
2022-11-29T09:50:36.729Z,4.10
2022-11-29T09:53:23.277Z,4.10
2022-11-29T09:56:01.103Z,4.10
2022-11-29T09:58:35.014Z,4.10
2022-11-29T10:01:07.560Z,4.20
2022-11-29T10:03:42.599Z,4.20
2022-11-29T10:06:23.014Z,4.20
2022-11-29T10:08:55.157Z,4.30
2022-11-29T10:11:28.283Z,4.40
2022-11-29T10:14:01.815Z,4.30
2022-11-29T10:16:39.168Z,4.40
2022-11-29T10:19:16.361Z,4.40
2022-11-29T10:21:54.357Z,4.50
2022-11-29T10:24:28.508Z,4.50
2022-11-29T10:26:56.976Z,4.50
2022-11-29T10:29:25.373Z,4.60
2022-11-29T10:31:56.912Z,4.50
2022-11-29T10:34:26.952Z,4.50
2022-11-29T10:37:00.041Z,4.60
2022-11-29T10:39:42.568Z,4.70
2022-11-29T10:42:30.491Z,4.70
2022-11-29T10:45:00.489Z,4.70
2022-11-29T10:47:28.896Z,4.70
2022-11-29T10:49:57.247Z,4.60
2022-11-29T10:52:26.810Z,4.70
2022-11-29T10:54:59.701Z,4.60
2022-11-29T10:57:27.905Z,4.50
2022-11-29T11:00:04.674Z,4.60
2022-11-29T11:02:33.613Z,4.60
2022-11-29T11:05:02.340Z,4.50
2022-11-29T11:07:35.593Z,4.50
2022-11-29T11:10:07.141Z,4.50
2022-11-29T11:12:36.922Z,4.60
2022-11-29T11:15:17.591Z,4.60
2022-11-29T11:17:58.724Z,4.70
2022-11-29T11:20:29.012Z,4.70
2022-11-29T11:23:01.116Z,4.80
2022-11-29T11:25:34.742Z,4.70
2022-11-29T11:28:18.071Z,4.70
2022-11-29T11:30:53.231Z,4.80
2022-11-29T11:33:25.399Z,4.70
2022-11-29T11:36:13.681Z,4.80
2022-11-29T11:38:51.576Z,4.80
2022-11-29T11:41:46.821Z,4.80
2022-11-29T11:47:22.049Z,4.70
2022-11-29T11:49:54.859Z,4.70
2022-11-29T11:52:28.432Z,4.80
2022-11-29T11:55:00.609Z,4.70
2022-11-29T11:57:29.427Z,4.80
2022-11-29T12:00:04.969Z,4.80
2022-11-29T12:02:41.010Z,4.90
2022-11-29T12:05:15.097Z,4.80
2022-11-29T12:10:40.920Z,4.70
2022-11-29T12:13:22.060Z,4.70
2022-11-29T12:15:52.107Z,4.70
2022-11-29T12:18:25.878Z,4.70
2022-11-29T12:20:58.274Z,4.70
2022-11-29T12:23:41.754Z,4.80
2022-11-29T12:26:41.151Z,4.80
2022-11-29T12:29:12.371Z,4.80
2022-11-29T12:31:55.069Z,4.90
2022-11-29T12:34:45.703Z,4.90
2022-11-29T12:37:22.571Z,4.90
2022-11-29T12:39:58.144Z,4.90
2022-11-29T12:42:39.712Z,4.90
2022-11-29T12:45:30.105Z,4.90
2022-11-29T12:48:08.968Z,4.90
2022-11-29T12:50:45.803Z,4.70
2022-11-29T12:53:31.174Z,4.80
2022-11-29T12:56:14.060Z,4.80
2022-11-29T12:58:57.431Z,4.70
2022-11-29T13:01:34.763Z,4.70
2022-11-29T13:04:14.721Z,4.80
2022-11-29T13:06:50.159Z,4.80
2022-11-29T13:10:03.248Z,4.80
2022-11-29T13:12:38.103Z,4.90
2022-11-29T13:15:15.683Z,4.80
2022-11-29T13:17:52.318Z,4.80
2022-11-29T13:20:33.863Z,4.80
2022-11-29T13:23:13.708Z,4.80
2022-11-29T13:25:44.197Z,4.70
2022-11-29T13:28:21.955Z,4.80
2022-11-29T13:30:52.047Z,4.70
2022-11-29T13:33:28.243Z,4.70
2022-11-29T13:36:08.262Z,4.70
2022-11-29T13:38:41.044Z,4.70
2022-11-29T13:41:20.973Z,4.70
2022-11-29T13:43:56.364Z,4.80
2022-11-29T13:46:31.642Z,4.80
2022-11-29T13:49:00.675Z,4.80
2022-11-29T13:51:32.884Z,4.70
2022-11-29T13:54:03.849Z,4.80
2022-11-29T13:56:43.227Z,4.80
2022-11-29T13:59:19.992Z,4.80
2022-11-29T14:01:52.725Z,4.70
2022-11-29T14:04:34.194Z,4.80
2022-11-29T14:07:05.367Z,4.80
2022-11-29T14:09:39.999Z,4.70
2022-11-29T14:12:35.928Z,4.70
2022-11-29T14:15:15.851Z,4.70
2022-11-29T14:17:52.269Z,4.70
2022-11-29T14:20:58.577Z,4.70
2022-11-29T14:23:41.664Z,4.60
2022-11-29T14:26:29.201Z,4.60
2022-11-29T14:28:58.322Z,4.60
2022-11-29T14:32:03.790Z,4.60
2022-11-29T14:34:42.626Z,4.60
2022-11-29T14:37:37.889Z,4.60
2022-11-29T14:40:20.693Z,4.50
2022-11-29T14:42:49.744Z,4.60
2022-11-29T14:45:27.142Z,4.60
2022-11-29T14:47:55.441Z,4.60
2022-11-29T14:50:34.196Z,4.60
2022-11-29T14:53:04.014Z,4.60
2022-11-29T14:55:35.645Z,4.60
2022-11-29T14:58:22.213Z,4.60
2022-11-29T15:01:11.068Z,4.60
2022-11-29T15:03:47.985Z,4.60
2022-11-29T15:06:29.028Z,4.60
2022-11-29T15:09:04.259Z,4.60
2022-11-29T15:11:44.186Z,4.50
2022-11-29T15:14:21.674Z,4.50
2022-11-29T15:17:09.025Z,4.60
2022-11-29T15:20:05.700Z,4.50
2022-11-29T15:22:45.952Z,4.50
2022-11-29T15:25:17.573Z,4.50
2022-11-29T15:27:56.026Z,4.50
2022-11-29T15:30:33.432Z,4.50
2022-11-29T15:33:03.057Z,4.50
2022-11-29T15:35:35.647Z,4.40
2022-11-29T15:38:05.500Z,4.40
2022-11-29T15:40:37.119Z,4.40
2022-11-29T15:43:17.747Z,4.40
2022-11-29T15:45:49.047Z,4.40
2022-11-29T15:48:22.886Z,4.40
2022-11-29T15:50:56.859Z,4.40
2022-11-29T15:53:29.665Z,4.40
2022-11-29T15:55:59.634Z,4.40
2022-11-29T15:58:32.072Z,4.40
2022-11-29T16:01:02.202Z,4.30
2022-11-29T16:03:31.969Z,4.40
2022-11-29T16:06:08.769Z,4.40
2022-11-29T16:08:42.728Z,4.30
2022-11-29T16:11:18.100Z,4.30
2022-11-29T16:14:16.645Z,4.20
2022-11-29T16:16:47.530Z,4.30
2022-11-29T16:19:31.217Z,4.30
2022-11-29T16:22:09.752Z,4.30
2022-11-29T16:24:41.858Z,4.30
2022-11-29T16:27:10.529Z,4.30
2022-11-29T16:29:45.283Z,4.30
2022-11-29T16:32:15.925Z,4.30
2022-11-29T16:34:48.729Z,4.30
2022-11-29T16:37:20.969Z,4.30
2022-11-29T16:39:52.510Z,4.20
2022-11-29T16:42:25.814Z,4.30
2022-11-29T16:45:05.752Z,4.30
2022-11-29T16:47:49.216Z,4.30
2022-11-29T16:50:20.995Z,4.30
2022-11-29T16:52:54.862Z,4.30
2022-11-29T16:55:25.947Z,4.40
2022-11-29T16:57:57.603Z,4.40
2022-11-29T17:00:31.699Z,4.30
2022-11-29T17:03:00.480Z,4.20
2022-11-29T17:05:28.826Z,4.20
2022-11-29T17:07:57.200Z,4.30
2022-11-29T17:10:28.913Z,4.20
2022-11-29T17:12:56.934Z,4.20
2022-11-29T17:15:26.265Z,4.20
2022-11-29T17:17:54.401Z,4.20
2022-11-29T17:20:22.432Z,4.10
2022-11-29T17:22:50.965Z,4.30
2022-11-29T17:25:19.136Z,4.10
2022-11-29T17:27:48.961Z,4.10
2022-11-29T17:30:17.521Z,4.00
2022-11-29T17:32:45.536Z,4.00
2022-11-29T17:35:14.401Z,4.00
2022-11-29T17:37:42.425Z,4.00
2022-11-29T17:40:11.156Z,4.00
2022-11-29T17:42:39.198Z,3.90
2022-11-29T17:45:09.836Z,4.00
2022-11-29T17:47:38.433Z,4.00
2022-11-29T17:50:07.832Z,4.00
2022-11-29T17:52:35.929Z,4.00
2022-11-29T17:55:04.147Z,3.90
2022-11-29T17:57:33.330Z,3.90
2022-11-29T18:00:02.316Z,3.90
2022-11-29T18:02:32.102Z,3.90
2022-11-29T18:05:00.263Z,3.90
2022-11-29T18:07:28.465Z,3.80
2022-11-29T18:09:56.670Z,3.80
2022-11-29T18:12:25.263Z,3.80
2022-11-29T18:14:53.349Z,3.70
2022-11-29T18:17:21.387Z,3.70
2022-11-29T18:19:50.830Z,3.60
2022-11-29T18:22:18.935Z,3.60
2022-11-29T18:24:47.482Z,3.50
2022-11-29T18:27:15.565Z,3.50
2022-11-29T18:29:43.880Z,3.50
2022-11-29T18:32:12.031Z,3.40
2022-11-29T18:34:40.153Z,3.40
2022-11-29T18:37:15.270Z,3.40
2022-11-29T18:39:46.270Z,3.40
2022-11-29T18:42:14.462Z,3.40
2022-11-29T18:44:42.545Z,3.40
2022-11-29T18:47:11.146Z,3.40
2022-11-29T18:49:39.224Z,3.30
2022-11-29T18:52:07.350Z,3.30
2022-11-29T18:54:36.839Z,3.20
2022-11-29T18:57:04.978Z,3.30
2022-11-29T18:59:33.487Z,3.20
2022-11-29T19:02:01.565Z,3.10
2022-11-29T19:04:30.172Z,3.10
2022-11-29T19:06:58.199Z,3.10
2022-11-29T19:09:26.383Z,3.10
2022-11-29T19:11:56.429Z,3.10
2022-11-29T19:14:24.534Z,3.10
2022-11-29T19:16:52.592Z,3.10
2022-11-29T19:19:20.873Z,3.00
2022-11-29T19:21:49.315Z,3.00
2022-11-29T19:24:19.358Z,3.00
2022-11-29T19:26:48.454Z,3.00
2022-11-29T19:29:18.812Z,3.00
2022-11-29T19:31:47.068Z,3.00
2022-11-29T19:34:15.422Z,3.00
2022-11-29T19:36:45.252Z,2.90
2022-11-29T19:39:15.259Z,2.90
2022-11-29T19:41:45.120Z,2.80
2022-11-29T19:44:13.901Z,2.80
2022-11-29T19:46:47.809Z,2.80
2022-11-29T19:49:16.214Z,2.80
2022-11-29T19:51:44.863Z,2.70
2022-11-29T19:54:13.181Z,2.70
2022-11-29T19:56:41.699Z,2.70
2022-11-29T19:59:10.351Z,2.60
2022-11-29T20:01:42.310Z,2.60
2022-11-29T20:04:16.566Z,2.60
2022-11-29T20:06:45.666Z,2.60
2022-11-29T20:09:14.838Z,2.60
2022-11-29T20:11:46.603Z,2.60
2022-11-29T20:14:17.547Z,2.60
2022-11-29T20:16:46.150Z,2.60
2022-11-29T20:19:18.649Z,2.50
2022-11-29T20:21:48.785Z,2.40
2022-11-29T20:24:19.571Z,2.40
2022-11-29T20:26:49.084Z,2.30
2022-11-29T20:29:17.566Z,2.30
2022-11-29T20:31:50.669Z,2.30
2022-11-29T20:34:21.549Z,2.20
2022-11-29T20:37:15.937Z,2.20
2022-11-29T20:39:49.124Z,2.10
2022-11-29T20:42:40.538Z,2.10
2022-11-29T20:45:12.109Z,2.00
2022-11-29T20:47:48.581Z,2.00
2022-11-29T20:50:23.582Z,1.90
2022-11-29T20:53:07.268Z,1.90
2022-11-29T20:55:37.783Z,1.90
2022-11-29T20:58:06.090Z,1.90
2022-11-29T21:00:34.815Z,1.90
2022-11-29T21:03:03.131Z,1.80
2022-11-29T21:05:32.993Z,1.90
2022-11-29T21:08:02.318Z,1.90
2022-11-29T21:10:30.840Z,1.90
2022-11-29T21:12:59.575Z,1.90
2022-11-29T21:15:29.672Z,1.90
2022-11-29T21:18:00.061Z,2.00
2022-11-29T21:20:29.384Z,2.10
2022-11-29T21:23:06.099Z,2.00
2022-11-29T21:25:45.834Z,2.00
2022-11-29T21:28:16.286Z,2.10
2022-11-29T21:30:45.515Z,2.10
2022-11-29T21:33:14.100Z,2.10
2022-11-29T21:35:42.301Z,2.10
2022-11-29T21:38:18.611Z,2.10
2022-11-29T21:40:46.705Z,2.10
2022-11-29T21:43:14.802Z,2.20
2022-11-29T21:45:42.942Z,2.20
2022-11-29T21:48:31.172Z,2.20
2022-11-29T21:50:59.280Z,2.20
2022-11-29T21:53:29.290Z,2.10
2022-11-29T21:55:58.579Z,2.20
2022-11-29T21:58:27.022Z,2.20
2022-11-29T22:00:58.698Z,2.20
2022-11-29T22:03:26.768Z,2.20
2022-11-29T22:05:54.817Z,2.20
2022-11-29T22:08:22.838Z,2.20
2022-11-29T22:11:02.482Z,2.20
2022-11-29T22:13:30.680Z,2.20
2022-11-29T22:16:09.404Z,2.20
2022-11-29T22:18:37.934Z,2.20
2022-11-29T22:21:08.258Z,2.20
2022-11-29T22:23:39.094Z,2.20
2022-11-29T22:26:09.123Z,2.20
2022-11-29T22:28:37.691Z,2.20
2022-11-29T22:31:07.069Z,2.20
2022-11-29T22:33:36.260Z,2.20
2022-11-29T22:36:05.935Z,2.20
2022-11-29T22:38:34.142Z,2.30
2022-11-29T22:41:03.064Z,2.20
2022-11-29T22:43:33.224Z,2.30
2022-11-29T22:46:08.371Z,2.20
2022-11-29T22:48:38.954Z,2.20
2022-11-29T22:51:08.723Z,2.20
2022-11-29T22:53:37.710Z,2.20
2022-11-29T22:56:08.513Z,2.10
2022-11-29T22:58:38.758Z,2.20
2022-11-29T23:01:09.497Z,2.10
2022-11-29T23:03:42.149Z,2.10
2022-11-29T23:06:12.804Z,2.10
2022-11-29T23:08:42.479Z,2.10
2022-11-29T23:11:13.411Z,2.10
2022-11-29T23:13:44.177Z,2.10
2022-11-29T23:16:15.191Z,2.10
2022-11-29T23:18:45.595Z,2.20
2022-11-29T23:21:16.704Z,2.20
2022-11-29T23:23:45.369Z,2.20
2022-11-29T23:26:19.759Z,2.20
2022-11-29T23:28:50.051Z,2.20
2022-11-29T23:31:18.590Z,2.20
2022-11-29T23:33:46.838Z,2.20
2022-11-29T23:36:15.652Z,2.10
2022-11-29T23:38:44.384Z,2.20
2022-11-29T23:41:13.287Z,2.10
2022-11-29T23:43:42.811Z,2.10
2022-11-29T23:46:16.334Z,2.10
2022-11-29T23:48:45.010Z,2.10
2022-11-29T23:51:14.812Z,2.00
2022-11-29T23:53:43.716Z,2.10
2022-11-29T23:56:14.604Z,2.00
2022-11-29T23:58:43.133Z,2.10
